createdAt,value
2022-08-03T12:30:31.933Z,35.27
2022-08-03T12:31:31.617Z,35.28
2022-08-03T12:32:31.674Z,35.23
2022-08-03T12:33:31.674Z,35.10
2022-08-03T12:34:31.722Z,35.00
2022-08-03T12:35:31.649Z,35.01
2022-08-03T12:36:31.681Z,34.95
2022-08-03T12:37:32.060Z,35.01
2022-08-03T12:38:31.623Z,34.91
2022-08-03T12:39:31.662Z,34.87
2022-08-03T12:40:31.942Z,34.83
2022-08-03T12:41:31.776Z,34.79
2022-08-03T12:42:31.703Z,34.52
2022-08-03T12:43:37.605Z,34.28
2022-08-03T12:44:31.647Z,34.29
2022-08-03T12:45:31.727Z,34.20
2022-08-03T12:46:31.684Z,34.27
2022-08-03T12:47:31.754Z,34.28
2022-08-03T12:48:31.786Z,34.34
2022-08-03T12:49:31.717Z,34.40
2022-08-03T12:50:31.866Z,34.35
2022-08-03T12:51:32.258Z,34.40
2022-08-03T12:52:31.668Z,34.28
2022-08-03T12:53:31.761Z,34.12
2022-08-03T12:54:31.663Z,34.24
2022-08-03T12:55:31.743Z,34.17
2022-08-03T12:56:31.697Z,34.11
2022-08-03T12:57:31.745Z,34.05
2022-08-03T12:58:31.707Z,34.00
2022-08-03T12:59:35.030Z,34.08
2022-08-03T13:00:31.690Z,34.01
2022-08-03T13:01:34.858Z,34.16
2022-08-03T13:02:34.919Z,34.21
2022-08-03T13:03:38.914Z,34.28
2022-08-03T13:04:34.725Z,34.39
2022-08-03T13:05:34.732Z,34.35
2022-08-03T13:06:34.700Z,34.32
2022-08-03T13:07:34.756Z,34.33
2022-08-03T13:08:34.746Z,34.35
2022-08-03T13:09:34.707Z,34.34
2022-08-03T13:10:34.727Z,34.40
2022-08-03T13:11:53.556Z,34.48
2022-08-03T13:12:34.738Z,34.43
2022-08-03T13:13:34.779Z,34.50
2022-08-03T13:14:34.752Z,34.64
2022-08-03T13:15:38.751Z,34.75
2022-08-03T13:16:34.797Z,34.91
2022-08-03T13:17:34.762Z,35.08
2022-08-03T13:18:34.825Z,35.38
2022-08-03T13:19:34.771Z,35.76
2022-08-03T13:20:34.771Z,35.90
2022-08-03T13:21:34.822Z,36.02
2022-08-03T13:22:34.776Z,36.44
2022-08-03T13:23:34.875Z,36.69
2022-08-03T13:24:34.839Z,37.03
2022-08-03T13:25:34.748Z,37.32
2022-08-03T13:26:34.782Z,37.50
2022-08-03T13:28:03.803Z,37.68
2022-08-03T13:28:35.225Z,38.18
2022-08-03T13:29:34.798Z,38.52
2022-08-03T13:30:34.802Z,38.90
2022-08-03T13:31:34.800Z,39.15
2022-08-03T13:32:34.794Z,39.57
2022-08-03T13:33:34.904Z,39.49
2022-08-03T13:34:34.824Z,39.64
2022-08-03T13:35:34.810Z,39.64
2022-08-03T13:36:59.136Z,40.05
2022-08-03T13:37:34.813Z,40.11
2022-08-03T13:38:34.965Z,39.67
2022-08-03T13:39:34.843Z,40.04
2022-08-03T13:40:41.351Z,40.06
2022-08-03T13:41:34.880Z,40.36
2022-08-03T13:42:34.810Z,40.24
2022-08-03T13:43:34.850Z,39.95
2022-08-03T13:44:34.880Z,39.58
2022-08-03T13:45:34.850Z,39.02
2022-08-03T13:46:34.868Z,39.08
2022-08-03T13:47:34.847Z,39.19
2022-08-03T13:48:34.891Z,38.76
2022-08-03T13:49:34.840Z,38.64
2022-08-03T13:50:37.565Z,38.48
2022-08-03T13:51:34.904Z,38.07
2022-08-03T13:52:34.907Z,37.85
2022-08-03T13:53:34.918Z,37.61
2022-08-03T13:54:34.853Z,37.48
2022-08-03T13:55:34.853Z,37.55
2022-08-03T13:56:34.928Z,37.23
2022-08-03T13:58:11.771Z,37.40
2022-08-03T13:58:35.306Z,37.30
2022-08-03T13:59:34.875Z,37.06
2022-08-03T14:00:34.878Z,36.92
2022-08-03T14:01:54.259Z,36.83
2022-08-03T14:02:34.918Z,36.60
2022-08-03T14:03:34.905Z,36.49
2022-08-03T14:04:34.883Z,36.27
2022-08-03T14:05:34.876Z,36.14
2022-08-03T14:06:34.922Z,36.31
2022-08-03T14:07:34.880Z,36.16
2022-08-03T14:08:35.440Z,36.04
2022-08-03T14:09:34.931Z,36.08
2022-08-03T14:10:34.931Z,36.30
2022-08-03T14:12:07.337Z,35.85
2022-08-03T14:12:34.943Z,35.83
2022-08-03T14:13:34.944Z,35.81
2022-08-03T14:14:35.027Z,35.81
2022-08-03T14:15:38.158Z,35.95
2022-08-03T14:16:34.914Z,35.78
2022-08-03T14:17:42.178Z,35.79
2022-08-03T14:18:34.931Z,35.47
2022-08-03T14:19:52.689Z,35.41
2022-08-03T14:20:37.912Z,35.18
2022-08-03T14:21:34.952Z,34.95
2022-08-03T14:22:35.000Z,35.02
2022-08-03T14:23:35.044Z,34.85
2022-08-03T14:24:35.005Z,34.61
2022-08-03T14:25:44.417Z,34.50
2022-08-03T14:26:35.033Z,34.50
2022-08-03T14:27:35.066Z,34.28
2022-08-03T14:28:35.008Z,34.22
2022-08-03T14:29:35.001Z,34.14
2022-08-03T14:30:35.117Z,33.95
2022-08-03T14:32:11.826Z,33.94
2022-08-03T14:32:35.039Z,33.93
2022-08-03T14:33:35.084Z,33.76
2022-08-03T14:34:35.050Z,33.72
2022-08-03T14:35:34.990Z,33.68
2022-08-03T14:36:35.008Z,33.62
2022-08-03T14:37:35.072Z,33.82
2022-08-03T14:38:34.990Z,33.68
2022-08-03T14:40:00.742Z,33.59
2022-08-03T14:40:34.972Z,33.60
2022-08-03T14:41:34.998Z,33.57
2022-08-03T14:42:34.981Z,33.59
2022-08-03T14:43:34.997Z,33.47
2022-08-03T14:44:35.066Z,33.47
2022-08-03T14:45:35.092Z,33.46
2022-08-03T14:46:34.990Z,33.93
2022-08-03T14:49:02.222Z,33.56
2022-08-03T14:50:31.790Z,33.56
2022-08-03T14:50:32.908Z,33.65
2022-08-03T14:50:42.101Z,33.53
2022-08-03T14:51:51.344Z,33.35
2022-08-03T14:52:35.052Z,33.42
2022-08-03T14:53:35.098Z,33.30
2022-08-03T14:54:35.033Z,33.30
2022-08-03T14:55:38.755Z,33.23
2022-08-03T14:56:35.028Z,33.17
2022-08-03T14:57:35.025Z,33.17
2022-08-03T14:58:35.046Z,33.09
2022-08-03T14:59:56.708Z,33.10
2022-08-03T15:00:35.040Z,32.96
2022-08-03T15:02:03.194Z,32.91
2022-08-03T15:02:35.087Z,32.91
2022-08-03T15:03:35.066Z,32.82
2022-08-03T15:04:35.023Z,32.80
2022-08-03T15:05:35.528Z,32.77
2022-08-03T15:06:35.126Z,32.73
2022-08-03T15:07:35.120Z,32.73
2022-08-03T15:08:35.080Z,32.66
2022-08-03T15:09:35.039Z,32.69
2022-08-03T15:10:40.532Z,32.65
2022-08-03T15:11:35.103Z,32.67
2022-08-03T15:12:35.073Z,32.60
2022-08-03T15:13:35.061Z,32.65
2022-08-03T15:14:35.106Z,32.64
2022-08-03T15:15:35.109Z,32.51
2022-08-03T15:16:35.083Z,32.46
2022-08-03T15:17:35.059Z,32.48
2022-08-03T15:18:35.102Z,32.48
2022-08-03T15:20:01.317Z,32.43
2022-08-03T15:20:43.995Z,32.65
2022-08-03T15:21:46.652Z,32.66
2022-08-03T15:22:35.256Z,32.69
2022-08-03T15:23:35.167Z,32.68
2022-08-03T15:24:35.099Z,32.66
2022-08-03T15:26:04.113Z,32.60
2022-08-03T15:26:40.919Z,32.61
2022-08-03T15:27:35.176Z,32.60
2022-08-03T15:28:37.483Z,32.60
2022-08-03T15:30:05.989Z,32.31
2022-08-03T15:30:35.154Z,32.25
2022-08-03T15:31:35.186Z,32.23
2022-08-03T15:32:35.256Z,32.10
2022-08-03T15:33:35.412Z,32.08
2022-08-03T15:34:35.232Z,32.02
2022-08-03T15:35:35.215Z,31.94
2022-08-03T15:36:35.202Z,31.87
2022-08-03T15:37:35.211Z,31.82
2022-08-03T15:38:36.504Z,31.85
2022-08-03T15:39:35.220Z,31.93
2022-08-03T15:40:35.181Z,31.94
2022-08-03T15:41:35.159Z,31.96
2022-08-03T15:42:35.191Z,31.95
2022-08-03T15:43:35.245Z,31.92
2022-08-03T15:44:35.247Z,31.84
2022-08-03T15:45:36.613Z,31.82
2022-08-03T15:46:35.311Z,31.80
2022-08-03T15:47:35.205Z,31.78
2022-08-03T15:48:35.213Z,31.76
2022-08-03T15:49:35.206Z,31.76
2022-08-03T15:50:35.281Z,31.73
2022-08-03T15:51:35.218Z,31.75
2022-08-03T15:52:35.257Z,31.76
2022-08-03T15:53:35.241Z,31.75
2022-08-03T15:54:35.241Z,31.77
2022-08-03T15:55:35.285Z,31.78
2022-08-03T15:56:35.241Z,31.76
2022-08-03T15:59:04.357Z,31.75
2022-08-03T15:59:04.507Z,31.71
2022-08-03T15:59:35.283Z,31.69
2022-08-03T16:00:35.249Z,31.70
2022-08-03T16:01:35.362Z,31.72
2022-08-03T16:02:35.264Z,31.64
2022-08-03T16:03:35.285Z,31.62
2022-08-03T16:04:35.242Z,31.57
2022-08-03T16:05:35.252Z,31.55
2022-08-03T16:06:36.452Z,31.52
2022-08-03T16:07:35.265Z,31.53
2022-08-03T16:08:35.311Z,31.44
2022-08-03T16:09:43.329Z,31.35
2022-08-03T16:10:35.298Z,31.33
2022-08-03T16:11:35.280Z,31.33
2022-08-03T16:12:35.280Z,31.33
2022-08-03T16:14:13.514Z,31.36
2022-08-03T16:14:46.865Z,31.35
2022-08-03T16:15:38.590Z,31.32
2022-08-03T16:16:35.331Z,31.37
2022-08-03T16:17:35.348Z,31.32
2022-08-03T16:18:35.288Z,31.51
2022-08-03T16:19:35.649Z,31.43
2022-08-03T16:20:35.554Z,31.27
2022-08-03T16:21:38.644Z,31.19
2022-08-03T16:22:35.335Z,31.15
2022-08-03T16:23:35.338Z,31.15
2022-08-03T16:24:35.311Z,31.10
2022-08-03T16:25:35.361Z,31.11
2022-08-03T16:26:35.408Z,31.21
2022-08-03T16:27:37.076Z,31.19
2022-08-03T16:28:35.444Z,31.17
2022-08-03T16:29:35.426Z,31.18
2022-08-03T16:30:35.446Z,31.18
2022-08-03T16:31:35.433Z,31.16
2022-08-03T16:32:35.473Z,31.11
2022-08-03T16:33:35.429Z,31.01
2022-08-03T16:34:37.573Z,30.99
2022-08-03T16:35:35.446Z,30.98
2022-08-03T16:36:35.440Z,30.97
2022-08-03T16:37:38.763Z,30.96
2022-08-03T16:38:35.493Z,30.90
2022-08-03T16:39:35.593Z,30.85
2022-08-03T16:40:35.529Z,30.86
2022-08-03T16:41:53.532Z,30.83
2022-08-03T16:42:35.499Z,30.81
2022-08-03T16:43:35.551Z,30.75
2022-08-03T16:44:35.569Z,30.64
2022-08-03T16:45:35.497Z,30.62
2022-08-03T16:46:35.484Z,30.62
2022-08-03T16:47:35.545Z,30.63
2022-08-03T16:48:35.496Z,30.67
2022-08-03T16:49:53.858Z,30.75
2022-08-03T16:50:35.536Z,30.67
2022-08-03T16:51:40.327Z,30.65
2022-08-03T16:52:35.571Z,30.68
2022-08-03T16:54:05.177Z,30.67
2022-08-03T16:54:35.510Z,30.52
2022-08-03T16:55:43.232Z,30.59
2022-08-03T16:56:36.303Z,30.54
2022-08-03T16:57:57.828Z,30.55
2022-08-03T16:58:42.161Z,30.53
2022-08-03T16:59:36.454Z,30.45
2022-08-03T17:00:41.779Z,30.37
2022-08-03T17:01:35.691Z,30.25
2022-08-03T17:02:35.696Z,30.20
